sensor_id;sensor_type;location;lat;lon;timestamp;temperature;humidity
60717;DHT22;46566;52.700;6.192;2023-03-16T00:01:59;4.30;99.90
60717;DHT22;46566;52.700;6.192;2023-03-16T00:04:24;4.40;99.90
60717;DHT22;46566;52.700;6.192;2023-03-16T00:06:50;4.40;99.90
60717;DHT22;46566;52.700;6.192;2023-03-16T00:09:15;4.40;99.90
60717;DHT22;46566;52.700;6.192;2023-03-16T00:11:41;4.40;99.90
60717;DHT22;46566;52.700;6.192;2023-03-16T00:14:07;4.40;99.90
60717;DHT22;46566;52.700;6.192;2023-03-16T00:16:33;4.40;99.90
60717;DHT22;46566;52.700;6.192;2023-03-16T00:19:00;4.40;99.90
60717;DHT22;46566;52.700;6.192;2023-03-16T00:21:28;4.40;99.90
60717;DHT22;46566;52.700;6.192;2023-03-16T00:23:57;4.40;99.90
60717;DHT22;46566;52.700;6.192;2023-03-16T00:26:22;4.40;99.90
60717;DHT22;46566;52.700;6.192;2023-03-16T00:28:48;4.40;99.90
60717;DHT22;46566;52.700;6.192;2023-03-16T00:31:17;4.40;99.90
60717;DHT22;46566;52.700;6.192;2023-03-16T00:33:42;4.40;99.90
60717;DHT22;46566;52.700;6.192;2023-03-16T00:36:08;4.40;99.90
60717;DHT22;46566;52.700;6.192;2023-03-16T00:38:39;4.40;99.90
60717;DHT22;46566;52.700;6.192;2023-03-16T00:41:09;4.50;99.90
60717;DHT22;46566;52.700;6.192;2023-03-16T00:43:39;4.50;99.90
60717;DHT22;46566;52.700;6.192;2023-03-16T00:46:09;4.50;99.90
60717;DHT22;46566;52.700;6.192;2023-03-16T00:48:36;4.40;99.90
60717;DHT22;46566;52.700;6.192;2023-03-16T00:51:02;4.40;99.90
60717;DHT22;46566;52.700;6.192;2023-03-16T00:53:33;4.40;99.90
60717;DHT22;46566;52.700;6.192;2023-03-16T00:56:00;4.40;99.90
60717;DHT22;46566;52.700;6.192;2023-03-16T00:58:29;4.40;99.90
60717;DHT22;46566;52.700;6.192;2023-03-16T01:01:08;4.40;99.90
60717;DHT22;46566;52.700;6.192;2023-03-16T01:03:36;4.40;99.90
60717;DHT22;46566;52.700;6.192;2023-03-16T01:06:06;4.40;99.90
60717;DHT22;46566;52.700;6.192;2023-03-16T01:08:35;4.40;99.90
60717;DHT22;46566;52.700;6.192;2023-03-16T01:11:01;4.40;99.90
60717;DHT22;46566;52.700;6.192;2023-03-16T01:13:28;4.40;99.90
60717;DHT22;46566;52.700;6.192;2023-03-16T01:15:53;4.40;99.90
60717;DHT22;46566;52.700;6.192;2023-03-16T01:18:19;4.30;99.90
60717;DHT22;46566;52.700;6.192;2023-03-16T01:20:44;4.40;99.90
60717;DHT22;46566;52.700;6.192;2023-03-16T01:23:19;4.30;99.90
60717;DHT22;46566;52.700;6.192;2023-03-16T01:25:44;4.30;99.90
60717;DHT22;46566;52.700;6.192;2023-03-16T01:28:18;4.30;99.90
60717;DHT22;46566;52.700;6.192;2023-03-16T01:30:44;4.30;99.90
60717;DHT22;46566;52.700;6.192;2023-03-16T01:33:09;4.30;99.90
60717;DHT22;46566;52.700;6.192;2023-03-16T01:35:35;4.30;99.90
60717;DHT22;46566;52.700;6.192;2023-03-16T01:38:01;4.30;99.90
60717;DHT22;46566;52.700;6.192;2023-03-16T01:40:27;4.30;99.90
60717;DHT22;46566;52.700;6.192;2023-03-16T01:42:58;4.30;99.90
60717;DHT22;46566;52.700;6.192;2023-03-16T01:48:10;4.30;99.90
60717;DHT22;46566;52.700;6.192;2023-03-16T01:50:35;4.30;99.90
60717;DHT22;46566;52.700;6.192;2023-03-16T01:53:01;4.30;99.90
60717;DHT22;46566;52.700;6.192;2023-03-16T01:55:27;4.30;99.90
60717;DHT22;46566;52.700;6.192;2023-03-16T01:57:53;4.30;99.90
60717;DHT22;46566;52.700;6.192;2023-03-16T02:00:19;4.40;99.90
60717;DHT22;46566;52.700;6.192;2023-03-16T02:03:18;4.40;99.90
60717;DHT22;46566;52.700;6.192;2023-03-16T02:05:58;4.40;99.90
60717;DHT22;46566;52.700;6.192;2023-03-16T02:08:26;4.40;99.90
60717;DHT22;46566;52.700;6.192;2023-03-16T02:10:52;4.40;99.90
60717;DHT22;46566;52.700;6.192;2023-03-16T02:13:22;4.40;99.90
60717;DHT22;46566;52.700;6.192;2023-03-16T02:15:50;4.40;99.90
60717;DHT22;46566;52.700;6.192;2023-03-16T02:18:16;4.40;99.90
60717;DHT22;46566;52.700;6.192;2023-03-16T02:20:42;4.50;99.90
60717;DHT22;46566;52.700;6.192;2023-03-16T02:23:12;4.50;99.90
60717;DHT22;46566;52.700;6.192;2023-03-16T02:30:53;4.50;99.90
60717;DHT22;46566;52.700;6.192;2023-03-16T02:33:19;4.50;99.90
60717;DHT22;46566;52.700;6.192;2023-03-16T02:35:45;4.50;99.90
60717;DHT22;46566;52.700;6.192;2023-03-16T02:38:11;4.50;99.90
60717;DHT22;46566;52.700;6.192;2023-03-16T02:40:43;4.60;99.90
60717;DHT22;46566;52.700;6.192;2023-03-16T02:43:13;4.50;99.90
60717;DHT22;46566;52.700;6.192;2023-03-16T02:45:45;4.60;99.90
60717;DHT22;46566;52.700;6.192;2023-03-16T02:48:13;4.60;99.90
60717;DHT22;46566;52.700;6.192;2023-03-16T02:50:42;4.60;99.90
60717;DHT22;46566;52.700;6.192;2023-03-16T02:53:08;4.60;99.90
60717;DHT22;46566;52.700;6.192;2023-03-16T02:55:34;4.60;99.90
60717;DHT22;46566;52.700;6.192;2023-03-16T02:58:00;4.60;99.90
60717;DHT22;46566;52.700;6.192;2023-03-16T03:00:26;4.60;99.90
60717;DHT22;46566;52.700;6.192;2023-03-16T03:02:52;4.60;99.90
60717;DHT22;46566;52.700;6.192;2023-03-16T03:05:18;4.60;99.90
60717;DHT22;46566;52.700;6.192;2023-03-16T03:07:43;4.60;99.90
60717;DHT22;46566;52.700;6.192;2023-03-16T03:10:09;4.60;99.90
60717;DHT22;46566;52.700;6.192;2023-03-16T03:12:36;4.60;99.90
60717;DHT22;46566;52.700;6.192;2023-03-16T03:15:05;4.60;99.90
60717;DHT22;46566;52.700;6.192;2023-03-16T03:17:38;4.60;99.90
60717;DHT22;46566;52.700;6.192;2023-03-16T03:20:04;4.60;99.90
60717;DHT22;46566;52.700;6.192;2023-03-16T03:22:38;4.60;99.90
60717;DHT22;46566;52.700;6.192;2023-03-16T03:25:04;4.50;99.90
60717;DHT22;46566;52.700;6.192;2023-03-16T03:27:30;4.50;99.90
60717;DHT22;46566;52.700;6.192;2023-03-16T03:29:58;4.60;99.90
60717;DHT22;46566;52.700;6.192;2023-03-16T03:32:25;4.50;99.90
60717;DHT22;46566;52.700;6.192;2023-03-16T03:34:51;4.50;99.90
60717;DHT22;46566;52.700;6.192;2023-03-16T03:37:17;4.50;99.90
60717;DHT22;46566;52.700;6.192;2023-03-16T03:39:43;4.50;99.90
60717;DHT22;46566;52.700;6.192;2023-03-16T03:42:10;4.50;99.90
60717;DHT22;46566;52.700;6.192;2023-03-16T03:44:36;4.50;99.90
60717;DHT22;46566;52.700;6.192;2023-03-16T03:47:02;4.50;99.90
60717;DHT22;46566;52.700;6.192;2023-03-16T03:49:28;4.50;99.90
60717;DHT22;46566;52.700;6.192;2023-03-16T03:51:54;4.50;99.90
60717;DHT22;46566;52.700;6.192;2023-03-16T03:54:24;4.50;99.90
60717;DHT22;46566;52.700;6.192;2023-03-16T03:56:54;4.50;99.90
60717;DHT22;46566;52.700;6.192;2023-03-16T03:59:20;4.50;99.90
60717;DHT22;46566;52.700;6.192;2023-03-16T04:02:22;4.40;99.90
60717;DHT22;46566;52.700;6.192;2023-03-16T04:04:51;4.50;99.90
60717;DHT22;46566;52.700;6.192;2023-03-16T04:07:16;4.40;99.90
60717;DHT22;46566;52.700;6.192;2023-03-16T04:09:43;4.40;99.90
60717;DHT22;46566;52.700;6.192;2023-03-16T04:12:19;4.40;99.90
60717;DHT22;46566;52.700;6.192;2023-03-16T04:14:45;4.40;99.90
60717;DHT22;46566;52.700;6.192;2023-03-16T04:17:11;4.40;99.90
60717;DHT22;46566;52.700;6.192;2023-03-16T04:19:38;4.40;99.90
60717;DHT22;46566;52.700;6.192;2023-03-16T04:22:08;4.40;99.90
60717;DHT22;46566;52.700;6.192;2023-03-16T04:24:34;4.40;99.90
60717;DHT22;46566;52.700;6.192;2023-03-16T04:27:00;4.40;99.90
60717;DHT22;46566;52.700;6.192;2023-03-16T04:29:27;4.40;99.90
60717;DHT22;46566;52.700;6.192;2023-03-16T04:31:55;4.40;99.90
60717;DHT22;46566;52.700;6.192;2023-03-16T04:34:22;4.40;99.90
60717;DHT22;46566;52.700;6.192;2023-03-16T04:36:51;4.40;99.90
60717;DHT22;46566;52.700;6.192;2023-03-16T04:39:17;4.40;99.90
60717;DHT22;46566;52.700;6.192;2023-03-16T04:41:43;4.40;99.90
60717;DHT22;46566;52.700;6.192;2023-03-16T04:44:18;4.40;99.90
60717;DHT22;46566;52.700;6.192;2023-03-16T04:46:43;4.40;99.90
60717;DHT22;46566;52.700;6.192;2023-03-16T04:49:10;4.40;99.90
60717;DHT22;46566;52.700;6.192;2023-03-16T04:51:36;4.40;99.90
60717;DHT22;46566;52.700;6.192;2023-03-16T04:54:06;4.40;99.90
60717;DHT22;46566;52.700;6.192;2023-03-16T04:56:34;4.40;99.90
60717;DHT22;46566;52.700;6.192;2023-03-16T04:59:04;4.40;99.90
60717;DHT22;46566;52.700;6.192;2023-03-16T05:01:39;4.40;99.90
60717;DHT22;46566;52.700;6.192;2023-03-16T05:04:05;4.50;99.90
60717;DHT22;46566;52.700;6.192;2023-03-16T05:06:34;4.50;99.90
60717;DHT22;46566;52.700;6.192;2023-03-16T05:09:01;4.50;99.90
60717;DHT22;46566;52.700;6.192;2023-03-16T05:11:31;4.50;99.90
60717;DHT22;46566;52.700;6.192;2023-03-16T05:14:00;4.50;99.90
60717;DHT22;46566;52.700;6.192;2023-03-16T05:16:32;4.50;99.90
60717;DHT22;46566;52.700;6.192;2023-03-16T05:18:58;4.50;99.90
60717;DHT22;46566;52.700;6.192;2023-03-16T05:21:26;4.60;99.90
60717;DHT22;46566;52.700;6.192;2023-03-16T05:23:58;4.60;99.90
60717;DHT22;46566;52.700;6.192;2023-03-16T05:26:24;4.50;99.90
60717;DHT22;46566;52.700;6.192;2023-03-16T05:28:50;4.50;99.90
60717;DHT22;46566;52.700;6.192;2023-03-16T05:31:18;4.50;99.90
60717;DHT22;46566;52.700;6.192;2023-03-16T05:33:48;4.50;99.90
60717;DHT22;46566;52.700;6.192;2023-03-16T05:36:17;4.50;99.90
60717;DHT22;46566;52.700;6.192;2023-03-16T05:38:46;4.50;99.90
60717;DHT22;46566;52.700;6.192;2023-03-16T05:41:20;4.50;99.90
60717;DHT22;46566;52.700;6.192;2023-03-16T05:44:10;4.50;99.90
60717;DHT22;46566;52.700;6.192;2023-03-16T05:46:53;4.50;99.90
60717;DHT22;46566;52.700;6.192;2023-03-16T05:49:19;4.50;99.90
60717;DHT22;46566;52.700;6.192;2023-03-16T05:51:45;4.50;99.90
60717;DHT22;46566;52.700;6.192;2023-03-16T05:54:11;4.50;99.90
60717;DHT22;46566;52.700;6.192;2023-03-16T05:56:43;4.50;99.90
60717;DHT22;46566;52.700;6.192;2023-03-16T05:59:08;4.50;99.90
60717;DHT22;46566;52.700;6.192;2023-03-16T06:01:34;4.50;99.90
60717;DHT22;46566;52.700;6.192;2023-03-16T06:04:01;4.40;99.90
60717;DHT22;46566;52.700;6.192;2023-03-16T06:06:32;4.40;99.90
60717;DHT22;46566;52.700;6.192;2023-03-16T06:09:05;4.40;99.90
60717;DHT22;46566;52.700;6.192;2023-03-16T06:11:31;4.40;99.90
60717;DHT22;46566;52.700;6.192;2023-03-16T06:13:58;4.40;99.90
60717;DHT22;46566;52.700;6.192;2023-03-16T06:16:24;4.40;99.90
60717;DHT22;46566;52.700;6.192;2023-03-16T06:18:50;4.40;99.90
60717;DHT22;46566;52.700;6.192;2023-03-16T06:21:15;4.40;99.90
60717;DHT22;46566;52.700;6.192;2023-03-16T06:23:41;4.40;99.90
60717;DHT22;46566;52.700;6.192;2023-03-16T06:26:08;4.40;99.90
60717;DHT22;46566;52.700;6.192;2023-03-16T06:28:36;4.40;99.90
60717;DHT22;46566;52.700;6.192;2023-03-16T06:31:01;4.50;99.90
60717;DHT22;46566;52.700;6.192;2023-03-16T06:33:31;4.50;99.90
60717;DHT22;46566;52.700;6.192;2023-03-16T06:36:13;4.50;99.90
60717;DHT22;46566;52.700;6.192;2023-03-16T06:38:43;4.50;99.90
60717;DHT22;46566;52.700;6.192;2023-03-16T06:41:16;4.60;99.90
60717;DHT22;46566;52.700;6.192;2023-03-16T06:43:44;4.60;99.90
60717;DHT22;46566;52.700;6.192;2023-03-16T06:46:22;4.60;99.90
60717;DHT22;46566;52.700;6.192;2023-03-16T06:48:48;4.60;99.90
60717;DHT22;46566;52.700;6.192;2023-03-16T06:51:14;4.60;99.90
60717;DHT22;46566;52.700;6.192;2023-03-16T06:53:39;4.60;99.90
60717;DHT22;46566;52.700;6.192;2023-03-16T06:56:06;4.70;99.90
60717;DHT22;46566;52.700;6.192;2023-03-16T06:58:39;4.70;99.90
60717;DHT22;46566;52.700;6.192;2023-03-16T07:01:06;4.70;99.90
60717;DHT22;46566;52.700;6.192;2023-03-16T07:03:31;4.70;99.90
60717;DHT22;46566;52.700;6.192;2023-03-16T07:06:03;4.80;99.90
60717;DHT22;46566;52.700;6.192;2023-03-16T07:08:30;4.80;99.90
60717;DHT22;46566;52.700;6.192;2023-03-16T07:13:47;4.80;99.90
60717;DHT22;46566;52.700;6.192;2023-03-16T07:16:14;4.90;99.90
60717;DHT22;46566;52.700;6.192;2023-03-16T07:18:40;4.90;99.90
60717;DHT22;46566;52.700;6.192;2023-03-16T07:21:27;4.90;99.90
60717;DHT22;46566;52.700;6.192;2023-03-16T07:23:53;4.90;99.90
60717;DHT22;46566;52.700;6.192;2023-03-16T07:26:23;4.90;99.90
60717;DHT22;46566;52.700;6.192;2023-03-16T07:31:45;5.00;99.90
60717;DHT22;46566;52.700;6.192;2023-03-16T07:34:16;5.00;99.90
60717;DHT22;46566;52.700;6.192;2023-03-16T07:39:38;5.00;99.90
60717;DHT22;46566;52.700;6.192;2023-03-16T07:42:09;5.00;99.90
60717;DHT22;46566;52.700;6.192;2023-03-16T07:47:40;5.00;99.90
60717;DHT22;46566;52.700;6.192;2023-03-16T07:59:05;5.10;99.90
60717;DHT22;46566;52.700;6.192;2023-03-16T08:01:31;5.10;99.90
60717;DHT22;46566;52.700;6.192;2023-03-16T08:04:05;5.10;99.90
60717;DHT22;46566;52.700;6.192;2023-03-16T08:06:31;5.10;99.90
60717;DHT22;46566;52.700;6.192;2023-03-16T08:08:56;5.10;99.90
60717;DHT22;46566;52.700;6.192;2023-03-16T08:11:29;5.10;99.90
60717;DHT22;46566;52.700;6.192;2023-03-16T08:17:00;5.20;99.90
60717;DHT22;46566;52.700;6.192;2023-03-16T08:19:26;5.20;99.90
60717;DHT22;46566;52.700;6.192;2023-03-16T08:22:06;5.20;99.90
60717;DHT22;46566;52.700;6.192;2023-03-16T08:24:38;5.20;99.90
60717;DHT22;46566;52.700;6.192;2023-03-16T08:27:06;5.20;99.90
60717;DHT22;46566;52.700;6.192;2023-03-16T08:29:33;5.20;99.90
60717;DHT22;46566;52.700;6.192;2023-03-16T08:32:15;5.20;99.90
60717;DHT22;46566;52.700;6.192;2023-03-16T08:34:42;5.20;99.90
60717;DHT22;46566;52.700;6.192;2023-03-16T08:37:08;5.20;99.90
60717;DHT22;46566;52.700;6.192;2023-03-16T08:39:34;5.20;99.90
60717;DHT22;46566;52.700;6.192;2023-03-16T08:42:04;5.20;99.90
60717;DHT22;46566;52.700;6.192;2023-03-16T08:44:54;5.20;99.90
60717;DHT22;46566;52.700;6.192;2023-03-16T08:47:20;5.20;99.90
60717;DHT22;46566;52.700;6.192;2023-03-16T08:49:47;5.20;99.90
60717;DHT22;46566;52.700;6.192;2023-03-16T08:54:58;5.20;99.90
60717;DHT22;46566;52.700;6.192;2023-03-16T08:57:23;5.20;99.90
60717;DHT22;46566;52.700;6.192;2023-03-16T08:59:49;5.20;99.90
60717;DHT22;46566;52.700;6.192;2023-03-16T09:02:15;5.20;99.90
60717;DHT22;46566;52.700;6.192;2023-03-16T09:07:32;5.20;99.90
60717;DHT22;46566;52.700;6.192;2023-03-16T09:09:59;5.20;99.90
60717;DHT22;46566;52.700;6.192;2023-03-16T09:12:25;5.20;99.90
60717;DHT22;46566;52.700;6.192;2023-03-16T09:15:03;5.20;99.90
60717;DHT22;46566;52.700;6.192;2023-03-16T09:17:29;5.20;99.90
60717;DHT22;46566;52.700;6.192;2023-03-16T09:19:55;5.20;99.90
60717;DHT22;46566;52.700;6.192;2023-03-16T09:22:21;5.20;99.90
60717;DHT22;46566;52.700;6.192;2023-03-16T09:30:05;5.30;99.90
60717;DHT22;46566;52.700;6.192;2023-03-16T09:32:32;5.20;99.90
60717;DHT22;46566;52.700;6.192;2023-03-16T09:34:58;5.30;99.90
60717;DHT22;46566;52.700;6.192;2023-03-16T09:37:35;5.30;99.90
60717;DHT22;46566;52.700;6.192;2023-03-16T09:40:00;5.30;99.90
60717;DHT22;46566;52.700;6.192;2023-03-16T09:42:46;5.30;99.90
60717;DHT22;46566;52.700;6.192;2023-03-16T09:48:04;5.40;99.90
60717;DHT22;46566;52.700;6.192;2023-03-16T09:50:32;5.40;99.90
60717;DHT22;46566;52.700;6.192;2023-03-16T09:55:52;5.50;99.90
60717;DHT22;46566;52.700;6.192;2023-03-16T09:58:19;5.60;99.90
60717;DHT22;46566;52.700;6.192;2023-03-16T10:03:47;5.60;99.90
60717;DHT22;46566;52.700;6.192;2023-03-16T10:06:18;5.70;99.90
60717;DHT22;46566;52.700;6.192;2023-03-16T10:08:44;5.70;99.90
60717;DHT22;46566;52.700;6.192;2023-03-16T10:11:40;5.80;99.90
60717;DHT22;46566;52.700;6.192;2023-03-16T10:17:17;5.90;99.90
60717;DHT22;46566;52.700;6.192;2023-03-16T10:27:29;6.10;99.90
60717;DHT22;46566;52.700;6.192;2023-03-16T10:29:55;6.10;99.90
60717;DHT22;46566;52.700;6.192;2023-03-16T10:32:21;6.20;99.90
60717;DHT22;46566;52.700;6.192;2023-03-16T10:35:04;6.20;99.90
60717;DHT22;46566;52.700;6.192;2023-03-16T10:37:31;6.20;99.90
60717;DHT22;46566;52.700;6.192;2023-03-16T10:39:57;6.30;99.90
60717;DHT22;46566;52.700;6.192;2023-03-16T10:42:25;6.30;99.90
60717;DHT22;46566;52.700;6.192;2023-03-16T10:47:36;6.40;99.90
60717;DHT22;46566;52.700;6.192;2023-03-16T10:50:11;6.50;99.90
60717;DHT22;46566;52.700;6.192;2023-03-16T10:52:39;6.50;99.90
60717;DHT22;46566;52.700;6.192;2023-03-16T10:57:59;6.70;99.90
60717;DHT22;46566;52.700;6.192;2023-03-16T11:02:51;6.80;99.90
60717;DHT22;46566;52.700;6.192;2023-03-16T11:10:37;7.00;99.90
60717;DHT22;46566;52.700;6.192;2023-03-16T11:27:25;7.30;99.90
60717;DHT22;46566;52.700;6.192;2023-03-16T11:32:46;7.40;99.90
60717;DHT22;46566;52.700;6.192;2023-03-16T11:35:16;7.50;99.90
60717;DHT22;46566;52.700;6.192;2023-03-16T11:40:47;7.70;99.90
60717;DHT22;46566;52.700;6.192;2023-03-16T11:48:40;8.10;99.90
60717;DHT22;46566;52.700;6.192;2023-03-16T11:56:46;8.30;99.90
60717;DHT22;46566;52.700;6.192;2023-03-16T12:14:35;8.40;99.90
60717;DHT22;46566;52.700;6.192;2023-03-16T12:17:10;8.40;99.90
60717;DHT22;46566;52.700;6.192;2023-03-16T12:22:38;8.50;99.90
60717;DHT22;46566;52.700;6.192;2023-03-16T12:25:26;8.50;99.90
60717;DHT22;46566;52.700;6.192;2023-03-16T12:27:54;8.60;99.90
60717;DHT22;46566;52.700;6.192;2023-03-16T12:35:54;8.60;99.90
60717;DHT22;46566;52.700;6.192;2023-03-16T12:47:06;8.70;99.90
60717;DHT22;46566;52.700;6.192;2023-03-16T12:49:34;8.80;99.90
60717;DHT22;46566;52.700;6.192;2023-03-16T12:52:47;8.80;99.90
60717;DHT22;46566;52.700;6.192;2023-03-16T12:54:53;8.80;99.90
60717;DHT22;46566;52.700;6.192;2023-03-16T12:57:30;8.90;99.90
60717;DHT22;46566;52.700;6.192;2023-03-16T12:59:56;9.00;99.90
60717;DHT22;46566;52.700;6.192;2023-03-16T13:05:14;9.10;99.90
60717;DHT22;46566;52.700;6.192;2023-03-16T13:07:47;9.20;99.90
60717;DHT22;46566;52.700;6.192;2023-03-16T13:13:11;9.40;99.90
60717;DHT22;46566;52.700;6.192;2023-03-16T13:15:37;9.50;99.90
60717;DHT22;46566;52.700;6.192;2023-03-16T13:20:59;9.70;99.90
60717;DHT22;46566;52.700;6.192;2023-03-16T13:23:28;9.80;99.90
60717;DHT22;46566;52.700;6.192;2023-03-16T13:29:37;10.20;99.90
60717;DHT22;46566;52.700;6.192;2023-03-16T13:32:07;10.20;99.90
60717;DHT22;46566;52.700;6.192;2023-03-16T13:34:36;10.10;99.90
60717;DHT22;46566;52.700;6.192;2023-03-16T13:37:03;10.00;99.90
60717;DHT22;46566;52.700;6.192;2023-03-16T13:42:18;10.00;99.90
60717;DHT22;46566;52.700;6.192;2023-03-16T13:44:44;10.00;99.90
60717;DHT22;46566;52.700;6.192;2023-03-16T13:47:14;10.10;99.90
60717;DHT22;46566;52.700;6.192;2023-03-16T13:49:56;10.10;99.90
60717;DHT22;46566;52.700;6.192;2023-03-16T13:52:26;10.20;99.90
60717;DHT22;46566;52.700;6.192;2023-03-16T13:54:53;10.20;99.90
60717;DHT22;46566;52.700;6.192;2023-03-16T13:57:21;10.30;99.90
60717;DHT22;46566;52.700;6.192;2023-03-16T14:02:40;10.40;99.90
60717;DHT22;46566;52.700;6.192;2023-03-16T14:05:08;10.30;99.90
60717;DHT22;46566;52.700;6.192;2023-03-16T14:07:36;10.40;99.90
60717;DHT22;46566;52.700;6.192;2023-03-16T14:10:11;10.40;99.90
60717;DHT22;46566;52.700;6.192;2023-03-16T14:12:54;10.50;99.90
60717;DHT22;46566;52.700;6.192;2023-03-16T14:15:20;10.50;99.90
60717;DHT22;46566;52.700;6.192;2023-03-16T14:20:38;10.80;99.90
60717;DHT22;46566;52.700;6.192;2023-03-16T14:23:04;10.90;99.90
60717;DHT22;46566;52.700;6.192;2023-03-16T14:25:30;11.00;99.90
60717;DHT22;46566;52.700;6.192;2023-03-16T14:30:37;10.90;95.90
60717;DHT22;46566;52.700;6.192;2023-03-16T14:38:42;10.80;93.30
60717;DHT22;46566;52.700;6.192;2023-03-16T14:46:27;10.90;97.90
60717;DHT22;46566;52.700;6.192;2023-03-16T14:49:06;10.90;99.90
60717;DHT22;46566;52.700;6.192;2023-03-16T14:51:34;10.90;99.90
60717;DHT22;46566;52.700;6.192;2023-03-16T14:54:17;10.90;98.50
60717;DHT22;46566;52.700;6.192;2023-03-16T14:56:47;10.80;94.40
60717;DHT22;46566;52.700;6.192;2023-03-16T14:59:13;10.80;92.50
60717;DHT22;46566;52.700;6.192;2023-03-16T15:01:39;10.80;98.30
60717;DHT22;46566;52.700;6.192;2023-03-16T15:06:56;10.80;99.90
60717;DHT22;46566;52.700;6.192;2023-03-16T15:09:28;10.80;99.90
60717;DHT22;46566;52.700;6.192;2023-03-16T15:14:46;10.80;93.80
60717;DHT22;46566;52.700;6.192;2023-03-16T15:17:46;10.80;99.50
60717;DHT22;46566;52.700;6.192;2023-03-16T15:20:13;10.80;99.90
60717;DHT22;46566;52.700;6.192;2023-03-16T15:22:40;10.80;99.90
60717;DHT22;46566;52.700;6.192;2023-03-16T15:25:51;10.80;99.90
60717;DHT22;46566;52.700;6.192;2023-03-16T15:28:17;10.80;99.90
60717;DHT22;46566;52.700;6.192;2023-03-16T15:30:44;10.90;99.90
60717;DHT22;46566;52.700;6.192;2023-03-16T15:33:10;10.90;99.90
60717;DHT22;46566;52.700;6.192;2023-03-16T15:38:28;11.00;99.90
60717;DHT22;46566;52.700;6.192;2023-03-16T15:40:55;11.00;99.90
60717;DHT22;46566;52.700;6.192;2023-03-16T15:43:22;11.10;99.90
60717;DHT22;46566;52.700;6.192;2023-03-16T15:46:06;11.10;99.90
60717;DHT22;46566;52.700;6.192;2023-03-16T15:48:31;11.20;99.40
60717;DHT22;46566;52.700;6.192;2023-03-16T15:53:30;11.20;96.60
60717;DHT22;46566;52.700;6.192;2023-03-16T15:56:15;11.20;92.80
60717;DHT22;46566;52.700;6.192;2023-03-16T15:58:42;11.20;94.00
60717;DHT22;46566;52.700;6.192;2023-03-16T16:01:23;11.20;98.70
60717;DHT22;46566;52.700;6.192;2023-03-16T16:04:11;11.20;99.90
60717;DHT22;46566;52.700;6.192;2023-03-16T16:06:37;11.10;99.90
60717;DHT22;46566;52.700;6.192;2023-03-16T16:09:02;11.10;99.90
60717;DHT22;46566;52.700;6.192;2023-03-16T16:11:28;11.10;99.90
60717;DHT22;46566;52.700;6.192;2023-03-16T16:14:05;11.10;99.90
60717;DHT22;46566;52.700;6.192;2023-03-16T16:16:31;11.10;99.90
60717;DHT22;46566;52.700;6.192;2023-03-16T16:18:58;11.10;99.90
60717;DHT22;46566;52.700;6.192;2023-03-16T16:21:25;11.10;99.90
60717;DHT22;46566;52.700;6.192;2023-03-16T16:23:53;11.00;99.90
60717;DHT22;46566;52.700;6.192;2023-03-16T16:29:16;10.90;99.90
60717;DHT22;46566;52.700;6.192;2023-03-16T16:31:42;10.90;99.90
60717;DHT22;46566;52.700;6.192;2023-03-16T16:36:59;10.80;99.90
60717;DHT22;46566;52.700;6.192;2023-03-16T16:39:25;10.80;99.90
60717;DHT22;46566;52.700;6.192;2023-03-16T16:41:51;10.70;99.90
60717;DHT22;46566;52.700;6.192;2023-03-16T16:47:17;10.60;99.90
60717;DHT22;46566;52.700;6.192;2023-03-16T16:49:43;10.60;99.90
60717;DHT22;46566;52.700;6.192;2023-03-16T16:54:59;10.50;99.90
60717;DHT22;46566;52.700;6.192;2023-03-16T16:57:24;10.50;99.90
60717;DHT22;46566;52.700;6.192;2023-03-16T16:59:50;10.40;99.90
60717;DHT22;46566;52.700;6.192;2023-03-16T17:05:12;10.40;99.90
60717;DHT22;46566;52.700;6.192;2023-03-16T17:07:38;10.30;99.90
60717;DHT22;46566;52.700;6.192;2023-03-16T17:10:04;10.30;99.90
60717;DHT22;46566;52.700;6.192;2023-03-16T17:12:39;10.30;99.90
60717;DHT22;46566;52.700;6.192;2023-03-16T17:15:17;10.30;99.90
60717;DHT22;46566;52.700;6.192;2023-03-16T17:23:32;10.20;99.90
60717;DHT22;46566;52.700;6.192;2023-03-16T17:28:50;10.20;99.90
60717;DHT22;46566;52.700;6.192;2023-03-16T17:31:21;10.20;99.90
60717;DHT22;46566;52.700;6.192;2023-03-16T17:36:38;10.20;99.90
60717;DHT22;46566;52.700;6.192;2023-03-16T17:39:05;10.20;99.90
60717;DHT22;46566;52.700;6.192;2023-03-16T17:41:32;10.20;99.90
60717;DHT22;46566;52.700;6.192;2023-03-16T17:44:01;10.20;99.90
60717;DHT22;46566;52.700;6.192;2023-03-16T17:46:29;10.20;99.90
60717;DHT22;46566;52.700;6.192;2023-03-16T17:48:55;10.10;99.90
60717;DHT22;46566;52.700;6.192;2023-03-16T17:51:21;10.10;99.90
60717;DHT22;46566;52.700;6.192;2023-03-16T17:53:49;10.10;99.90
60717;DHT22;46566;52.700;6.192;2023-03-16T17:56:16;10.10;99.90
60717;DHT22;46566;52.700;6.192;2023-03-16T17:58:43;10.10;99.90
60717;DHT22;46566;52.700;6.192;2023-03-16T18:01:09;10.00;99.90
60717;DHT22;46566;52.700;6.192;2023-03-16T18:03:36;10.10;99.90
60717;DHT22;46566;52.700;6.192;2023-03-16T18:06:02;10.00;99.90
60717;DHT22;46566;52.700;6.192;2023-03-16T18:08:28;10.00;99.90
60717;DHT22;46566;52.700;6.192;2023-03-16T18:10:58;9.90;99.90
60717;DHT22;46566;52.700;6.192;2023-03-16T18:13:28;9.90;99.90
60717;DHT22;46566;52.700;6.192;2023-03-16T18:15:55;9.90;99.90
60717;DHT22;46566;52.700;6.192;2023-03-16T18:18:22;9.90;99.90
60717;DHT22;46566;52.700;6.192;2023-03-16T18:20:49;9.90;99.90
60717;DHT22;46566;52.700;6.192;2023-03-16T18:23:17;9.90;99.90
60717;DHT22;46566;52.700;6.192;2023-03-16T18:25:44;9.80;99.90
60717;DHT22;46566;52.700;6.192;2023-03-16T18:28:10;9.80;99.90
60717;DHT22;46566;52.700;6.192;2023-03-16T18:30:36;9.80;99.90
60717;DHT22;46566;52.700;6.192;2023-03-16T18:33:02;9.80;99.90
60717;DHT22;46566;52.700;6.192;2023-03-16T18:35:29;9.80;99.90
60717;DHT22;46566;52.700;6.192;2023-03-16T18:37:56;9.80;99.90
60717;DHT22;46566;52.700;6.192;2023-03-16T18:40:22;9.80;99.90
60717;DHT22;46566;52.700;6.192;2023-03-16T18:42:49;9.70;99.90
60717;DHT22;46566;52.700;6.192;2023-03-16T18:45:15;9.70;99.90
60717;DHT22;46566;52.700;6.192;2023-03-16T18:47:43;9.70;99.90
60717;DHT22;46566;52.700;6.192;2023-03-16T18:50:18;9.70;99.90
60717;DHT22;46566;52.700;6.192;2023-03-16T18:52:44;9.70;99.90
60717;DHT22;46566;52.700;6.192;2023-03-16T18:55:14;9.70;99.90
60717;DHT22;46566;52.700;6.192;2023-03-16T18:57:41;9.60;99.90
60717;DHT22;46566;52.700;6.192;2023-03-16T19:00:07;9.60;99.90
60717;DHT22;46566;52.700;6.192;2023-03-16T19:02:34;9.60;99.90
60717;DHT22;46566;52.700;6.192;2023-03-16T19:05:02;9.50;99.90
60717;DHT22;46566;52.700;6.192;2023-03-16T19:07:32;9.50;99.90
60717;DHT22;46566;52.700;6.192;2023-03-16T19:10:04;9.50;99.90
60717;DHT22;46566;52.700;6.192;2023-03-16T19:12:30;9.50;99.90
60717;DHT22;46566;52.700;6.192;2023-03-16T19:14:56;9.40;99.90
60717;DHT22;46566;52.700;6.192;2023-03-16T19:17:21;9.40;99.90
60717;DHT22;46566;52.700;6.192;2023-03-16T19:19:47;9.40;99.90
60717;DHT22;46566;52.700;6.192;2023-03-16T19:22:14;9.30;99.90
60717;DHT22;46566;52.700;6.192;2023-03-16T19:24:44;9.30;99.90